weather.gov     
National Weather Service

Terminal Aerodrome Forecast
NWS Homepage
This page is being discontinued on March 12, 2014.
The same data is available at this site. Please update your bookmarks.
Thank you, and we apologize for the inconvenience.
Please send an email to SR-SRH.Webmaster@noaa.gov with any concerns.


Current Version
Previous Version:    01  02  03  04  05  06  07  08  09  10  11  12  13  14  15  16  17  18  19  20  21  22  23  
[Printable]
622
FTUS42 KFFC 012326
TAFMCN
TAF
KMCN 012326Z 0200/0224 17006KT 6SM -RA BR SCT035 BKN060
      TEMPO 0200/0203 4SM RA BR OVC035
     FM020300 19009KT 4SM -RA BR OVC015
     FM020600 22010KT 3SM -RA OVC007
     FM021200 27010KT 5SM -RA OVC015
     FM021500 30010G20KT P6SM -RA BKN025
     FM021800 31014G24KT P6SM BKN040
     FM022000 32012G22KT P6SM SCT050=


622
FTUS42 KFFC 012326
TAFMCN
TAF
KMCN 012326Z 0200/0224 17006KT 6SM -RA BR SCT035 BKN060
      TEMPO 0200/0203 4SM RA BR OVC035
     FM020300 19009KT 4SM -RA BR OVC015
     FM020600 22010KT 3SM -RA OVC007
     FM021200 27010KT 5SM -RA OVC015
     FM021500 30010G20KT P6SM -RA BKN025
     FM021800 31014G24KT P6SM BKN040
     FM022000 32012G22KT P6SM SCT050=




U.S. Dept. of Commerce
NOAA National Weather Service
1325 East West Highway
Silver Spring, MD 20910
E-mail: w-nws.webmaster@noaa.gov
Page last modified: May 16, 2007
NATIONAL WEATHER SERVICE: for Safety, for Work, for Fun - FOR LIFE